createdAt,value
2019-02-12T00:02:04.467Z,98393.63
2019-02-12T00:07:02.661Z,98393.23
2019-02-12T00:11:58.644Z,98396.08
2019-02-12T00:16:54.558Z,98398.26
2019-02-12T00:21:50.442Z,98401.25
2019-02-12T00:26:46.406Z,98406.25
2019-02-12T00:31:42.243Z,98426.30
2019-02-12T00:36:42.914Z,98431.89
2019-02-12T00:41:43.123Z,98439.42
2019-02-12T00:46:44.785Z,98437.73
2019-02-12T00:51:40.824Z,98451.20
2019-02-12T00:56:36.656Z,98442.78
2019-02-12T01:01:38.760Z,98456.21
2019-02-12T01:06:34.593Z,98464.45
2019-02-12T01:11:37.951Z,98453.66
2019-02-12T01:16:34.082Z,98456.00
2019-02-12T01:21:32.995Z,98447.46
2019-02-12T01:26:28.801Z,98462.14
2019-02-12T01:31:26.861Z,98469.46
2019-02-12T01:36:23.092Z,98473.45
2019-02-12T01:41:18.972Z,98473.19
2019-02-12T01:46:14.922Z,98481.32
2019-02-12T01:51:11.003Z,98485.61
2019-02-12T01:56:06.914Z,98486.30
2019-02-12T02:01:02.914Z,98496.47
2019-02-12T02:05:58.814Z,98488.44
2019-02-12T02:10:56.873Z,98503.54
2019-02-12T02:15:52.793Z,98517.09
2019-02-12T02:20:48.854Z,98500.82
2019-02-12T02:25:44.795Z,98503.08
2019-02-12T02:30:47.853Z,98500.73
2019-02-12T02:35:43.581Z,98506.59
2019-02-12T02:40:39.697Z,98509.56
2019-02-12T02:45:35.833Z,98513.12
2019-02-12T02:50:31.959Z,98532.53
2019-02-12T02:55:29.008Z,98542.16
2019-02-12T03:00:24.864Z,98528.81
2019-02-12T03:05:21.035Z,98518.29
2019-02-12T03:10:18.019Z,98514.35
2019-02-12T03:15:16.003Z,98515.14
2019-02-12T03:20:12.777Z,98517.44
2019-02-12T03:25:09.289Z,98532.97
2019-02-12T03:30:06.616Z,98525.77
2019-02-12T03:35:02.563Z,98533.52
2019-02-12T03:39:58.371Z,98546.13
2019-02-12T03:44:54.391Z,98538.27
2019-02-12T03:49:52.618Z,98532.03
2019-02-12T03:54:48.719Z,98542.52
2019-02-12T03:59:44.890Z,98553.07
2019-02-12T04:04:40.961Z,98557.30
2019-02-12T04:09:37.126Z,98555.66
2019-02-12T04:14:32.942Z,98556.38
2019-02-12T04:19:28.778Z,98571.14
2019-02-12T04:24:24.681Z,98588.17
2019-02-12T04:29:20.663Z,98591.34
2019-02-12T04:34:16.591Z,98600.86
2019-02-12T04:39:12.559Z,98605.66
2019-02-12T04:44:08.464Z,98611.64
2019-02-12T04:49:04.432Z,98607.73
2019-02-12T04:54:02.641Z,98600.45
2019-02-12T04:58:58.601Z,98596.95
2019-02-12T05:10:41.141Z,98589.84
2019-02-12T05:15:37.069Z,98595.97
2019-02-12T05:20:36.017Z,98598.22
2019-02-12T05:37:36.687Z,98605.56
2019-02-12T05:43:31.189Z,98609.44
2019-02-12T05:54:31.774Z,98623.82
2019-02-12T05:59:36.738Z,98613.90
2019-02-12T06:04:32.676Z,98620.24
2019-02-12T06:15:30.620Z,98609.08
2019-02-12T06:20:26.572Z,98609.44
2019-02-12T06:25:22.514Z,98609.36
2019-02-12T06:30:36.359Z,98622.09
2019-02-12T06:35:34.954Z,98626.47
2019-02-12T06:40:30.915Z,98630.88
2019-02-12T06:45:35.925Z,98642.55
2019-02-12T06:50:31.786Z,98630.91
2019-02-12T06:55:27.727Z,98639.96
2019-02-12T07:00:23.629Z,98639.21
2019-02-12T07:05:19.581Z,98647.81
2019-02-12T07:10:26.131Z,98656.69
2019-02-12T07:15:40.159Z,98667.56
2019-02-12T07:21:20.562Z,98665.80
2019-02-12T07:27:24.048Z,98668.34
2019-02-12T07:32:47.467Z,98671.21
2019-02-12T07:38:41.087Z,98673.70
2019-02-12T07:44:40.265Z,98678.38
2019-02-12T07:50:26.536Z,98678.30
2019-02-12T07:56:25.674Z,98683.69
2019-02-12T08:02:13.505Z,98692.63
2019-02-12T08:07:49.000Z,98704.78
2019-02-12T08:13:34.365Z,98704.05
2019-02-12T08:19:32.443Z,98711.42
2019-02-12T08:25:21.066Z,98721.48
2019-02-12T08:31:08.641Z,98723.98
2019-02-12T08:36:50.001Z,98739.58
2019-02-12T08:42:47.494Z,98747.73
2019-02-12T08:48:45.768Z,98752.16
2019-02-12T08:54:40.353Z,98751.48
2019-02-12T09:00:21.951Z,98761.45
2019-02-12T09:06:24.058Z,98764.71
2019-02-12T09:12:46.903Z,98764.17
2019-02-12T09:18:27.840Z,98763.61
2019-02-12T09:24:43.031Z,98765.87
2019-02-12T09:30:29.755Z,98773.58
2019-02-12T09:36:15.524Z,98775.93
2019-02-12T09:42:20.959Z,98784.23
2019-02-12T09:48:17.324Z,98791.13
2019-02-12T09:54:23.297Z,98789.73
2019-02-12T10:00:10.054Z,98807.38
2019-02-12T10:05:58.384Z,98808.48
2019-02-12T10:11:35.286Z,98820.26
2019-02-12T10:17:04.057Z,98830.40
2019-02-12T10:22:54.507Z,98829.59
2019-02-12T10:29:09.832Z,98823.66
2019-02-12T10:34:05.777Z,98830.84
2019-02-12T10:39:03.707Z,98821.72
2019-02-12T10:43:59.361Z,98819.05
2019-02-12T10:48:57.006Z,98820.04
2019-02-12T10:53:53.038Z,98821.38
2019-02-12T10:58:50.064Z,98822.58
2019-02-12T11:03:47.138Z,98829.83
2019-02-12T11:08:45.085Z,98826.63
2019-02-12T11:13:41.029Z,98829.48
2019-02-12T11:18:38.756Z,98827.98
2019-02-12T11:23:37.919Z,98818.55
2019-02-12T11:28:35.735Z,98806.84
2019-02-12T11:33:31.684Z,98808.88
2019-02-12T11:38:27.668Z,98792.93
2019-02-12T11:43:23.688Z,98802.02
2019-02-12T11:48:19.521Z,98794.67
2019-02-12T11:53:15.477Z,98793.15
2019-02-12T11:58:11.295Z,98790.64
2019-02-12T12:03:07.355Z,98795.28
2019-02-12T12:08:03.320Z,98789.13
2019-02-12T12:13:01.000Z,98796.73
2019-02-12T12:17:57.045Z,98783.14
2019-02-12T12:22:53.059Z,98774.79
2019-02-12T12:27:49.244Z,98781.02
2019-02-12T12:32:45.066Z,98782.41
2019-02-12T12:37:40.914Z,98777.49
2019-02-12T12:42:37.094Z,98776.52
2019-02-12T12:47:33.038Z,98779.40
2019-02-12T12:52:28.932Z,98769.18
2019-02-12T12:57:24.847Z,98767.94
2019-02-12T13:02:20.896Z,98765.52
2019-02-12T13:07:16.854Z,98775.89
2019-02-12T13:12:12.759Z,98768.61
2019-02-12T13:17:08.704Z,98777.09
2019-02-12T13:22:04.538Z,98774.79
2019-02-12T13:27:00.491Z,98780.56
2019-02-12T13:31:56.358Z,98788.11
2019-02-12T13:36:52.432Z,98783.02
2019-02-12T13:41:48.303Z,98786.56
2019-02-12T13:46:44.260Z,98785.12
2019-02-12T13:51:40.106Z,98786.39
2019-02-12T13:56:37.864Z,98784.91
2019-02-12T14:01:33.823Z,98782.77
2019-02-12T14:06:29.802Z,98788.36
2019-02-12T14:11:25.605Z,98794.35
2019-02-12T14:16:25.487Z,98795.40
2019-02-12T14:21:21.353Z,98794.50
2019-02-12T14:26:17.379Z,98794.25
2019-02-12T14:31:13.282Z,98797.29
2019-02-12T14:36:09.181Z,98798.44
2019-02-12T14:41:04.997Z,98794.00
2019-02-12T14:46:00.864Z,98795.86
2019-02-12T14:50:57.064Z,98797.44
2019-02-12T14:55:53.022Z,98792.25
2019-02-12T15:00:48.938Z,98793.58
2019-02-12T15:05:45.007Z,98785.16
2019-02-12T15:10:41.767Z,98788.31
2019-02-12T15:15:37.903Z,98788.73
2019-02-12T15:20:34.133Z,98788.72
2019-02-12T15:25:41.799Z,98793.70
2019-02-12T15:30:48.959Z,98789.22
2019-02-12T15:35:59.401Z,98786.52
2019-02-12T15:46:20.562Z,98790.24
2019-02-12T15:51:26.587Z,98787.44
2019-02-12T15:56:25.350Z,98793.28
2019-02-12T16:01:24.281Z,98784.08
2019-02-12T16:06:40.179Z,98777.94
2019-02-12T16:12:02.008Z,98775.27
2019-02-12T16:17:20.479Z,98775.12
2019-02-12T16:23:10.736Z,98781.50
2019-02-12T16:28:16.148Z,98772.58
2019-02-12T16:33:50.259Z,98776.80
2019-02-12T16:38:55.758Z,98777.03
2019-02-12T16:43:50.829Z,98778.37
2019-02-12T16:48:49.744Z,98785.86
2019-02-12T16:53:53.764Z,98793.78
2019-02-12T16:59:06.682Z,98796.48
2019-02-12T17:04:13.796Z,98805.25
2019-02-12T17:09:10.528Z,98810.67
2019-02-12T17:14:39.720Z,98809.20
2019-02-12T17:19:48.938Z,98817.05
2019-02-12T17:31:13.545Z,98835.37
2019-02-12T17:36:11.435Z,98845.20
2019-02-12T17:47:46.154Z,98861.98
2019-02-12T18:23:39.678Z,98901.84
2019-02-12T18:52:52.939Z,98932.59
2019-02-12T18:58:37.041Z,98932.39
2019-02-12T19:55:33.950Z,98949.48
2019-02-12T20:01:08.370Z,98958.11
2019-02-12T20:11:46.463Z,98967.34
2019-02-12T20:16:45.798Z,98969.59
2019-02-12T20:34:34.663Z,98970.46
2019-02-12T20:40:21.243Z,98963.03
2019-02-12T20:45:17.492Z,98966.59
2019-02-12T20:50:14.515Z,98964.51
2019-02-12T20:55:11.007Z,98970.91
2019-02-12T21:00:23.562Z,98971.09
2019-02-12T21:05:22.474Z,98959.39
2019-02-12T21:10:44.717Z,98970.59
2019-02-12T21:15:58.612Z,98970.63
2019-02-12T21:21:14.153Z,98973.75
2019-02-12T21:26:26.075Z,98975.48
2019-02-12T21:31:41.330Z,98982.35
2019-02-12T21:37:42.547Z,98984.91
2019-02-12T21:43:05.228Z,98977.98
2019-02-12T21:48:21.571Z,98980.20
2019-02-12T21:59:58.503Z,98975.03
2019-02-12T22:05:43.642Z,98969.92
2019-02-12T22:11:24.381Z,98977.66
2019-02-12T22:16:36.126Z,98980.69
2019-02-12T22:22:06.425Z,98984.16
2019-02-12T22:27:06.321Z,98990.16
2019-02-12T22:32:02.157Z,98974.67
2019-02-12T22:36:58.051Z,98973.83
2019-02-12T22:42:03.533Z,98993.19
2019-02-12T22:47:56.143Z,98989.73
2019-02-12T22:52:57.925Z,98994.90
2019-02-12T22:58:04.661Z,99000.48
2019-02-12T23:03:14.182Z,98996.20
2019-02-12T23:13:43.091Z,99004.75
2019-02-12T23:19:26.995Z,98989.73
2019-02-12T23:24:48.068Z,98992.75
2019-02-12T23:30:01.826Z,98997.46
2019-02-12T23:35:26.763Z,99005.62
2019-02-12T23:40:34.676Z,99016.38
2019-02-12T23:45:37.606Z,99013.80
2019-02-12T23:50:54.884Z,99010.77
2019-02-12T23:56:03.577Z,99004.31
